Time;durP1;ratioP1;P1;durP2;ratioP2;P2;SDS_P1;SDS_P2;PMS_P1;PMS_P2;Temp;Humidity;BMP_temperature;BMP_pressure;BME280_temperature;BME280_humidity;BME280_pressure;Samples;Min_cycle;Max_cycle;Signal;HPM_P1;HPM_P2
2022/02/20 00:00:55;;;;;;;3.75;0.65;;;4.90;99.90;;;;;;5017827;28;19936;-70
2022/02/20 00:03:20;;;;;;;0.75;0.40;;;4.90;99.90;;;;;;5015565;28;20140;-70
2022/02/20 00:05:46;;;;;;;3.03;1.08;;;4.90;99.90;;;;;;5017724;28;20080;-69
2022/02/20 00:08:12;;;;;;;1.40;1.30;;;4.90;99.90;;;;;;5018736;28;20029;-70
2022/02/20 00:10:38;;;;;;;1.95;0.40;;;5.00;99.90;;;;;;5019575;28;20038;-70
2022/02/20 00:13:04;;;;;;;3.40;0.65;;;5.00;99.90;;;;;;5019376;28;20034;-69
2022/02/20 00:15:30;;;;;;;;;;;4.90;99.90;;;;;;5018990;28;20038;-69
2022/02/20 00:17:57;;;;;;;5.32;0.60;;;5.00;99.90;;;;;;5018942;28;19913;-69
2022/02/20 00:20:25;;;;;;;4.65;1.00;;;5.00;99.90;;;;;;5019974;28;20025;-69
2022/02/20 00:22:51;;;;;;;6.78;1.73;;;5.00;99.90;;;;;;5014651;28;20037;-69
2022/02/20 00:25:17;;;;;;;2.97;0.52;;;5.00;99.90;;;;;;5019181;28;20026;-69
2022/02/20 00:27:43;;;;;;;3.55;1.30;;;5.00;99.90;;;;;;5019611;28;20080;-69
2022/02/20 00:30:09;;;;;;;2.20;1.10;;;5.00;99.90;;;;;;5019391;28;20104;-69
2022/02/20 00:32:34;;;;;;;1.98;1.00;;;5.00;99.90;;;;;;5020976;28;20065;-69
2022/02/20 00:35:00;;;;;;;2.00;1.10;;;4.90;99.90;;;;;;5019306;28;20030;-69
2022/02/20 00:37:25;;;;;;;3.05;1.33;;;4.90;99.90;;;;;;5020159;28;20033;-69
2022/02/20 00:39:51;;;;;;;5.07;1.60;;;4.90;99.90;;;;;;5015877;28;20025;-70
2022/02/20 00:42:16;;;;;;;1.35;1.05;;;4.80;99.90;;;;;;5018886;28;20079;-69
2022/02/20 00:44:42;;;;;;;7.35;1.88;;;4.80;99.90;;;;;;5020585;28;20133;-69
2022/02/20 00:47:07;;;;;;;4.40;2.28;;;4.80;99.90;;;;;;5018261;28;20038;-69
2022/02/20 00:49:33;;;;;;;5.53;1.50;;;4.80;99.90;;;;;;5020228;28;20565;-69
2022/02/20 00:51:58;;;;;;;4.65;1.25;;;4.80;99.90;;;;;;5017561;28;20041;-69
2022/02/20 00:54:24;;;;;;;8.35;1.85;;;4.80;99.90;;;;;;5017566;28;20101;-69
2022/02/20 00:56:49;;;;;;;3.15;1.73;;;4.70;99.90;;;;;;5017435;28;20026;-69
2022/02/20 00:59:16;;;;;;;2.97;1.05;;;4.70;99.90;;;;;;5019690;28;20044;-69
2022/02/20 01:01:41;;;;;;;1.92;1.02;;;4.70;99.90;;;;;;5016903;28;20037;-69
2022/02/20 01:04:08;;;;;;;1.10;0.70;;;4.70;99.90;;;;;;5014913;28;20037;-69
2022/02/20 01:06:34;;;;;;;1.27;0.45;;;4.60;99.90;;;;;;5019479;28;20491;-69
2022/02/20 01:08:59;;;;;;;0.70;0.50;;;4.60;99.90;;;;;;5016747;28;20044;-69
2022/02/20 01:11:25;;;;;;;0.93;0.45;;;4.70;99.90;;;;;;5008538;28;20084;-69
2022/02/20 01:13:50;;;;;;;0.85;0.60;;;4.60;99.90;;;;;;5019803;28;20482;-69
2022/02/20 01:16:16;;;;;;;0.98;0.30;;;4.60;99.90;;;;;;5016634;28;20037;-69
2022/02/20 01:18:42;;;;;;;1.17;0.43;;;4.60;99.90;;;;;;5019837;28;20496;-69
2022/02/20 01:21:08;;;;;;;2.80;0.60;;;4.60;99.90;;;;;;5019105;28;20054;-69
2022/02/20 01:23:33;;;;;;;1.40;0.55;;;4.60;99.90;;;;;;5018161;28;20088;-69
2022/02/20 01:25:59;;;;;;;1.30;0.47;;;4.60;99.90;;;;;;5018744;28;20126;-69
2022/02/20 01:28:24;;;;;;;2.15;0.60;;;4.60;99.90;;;;;;5014252;28;20415;-69
2022/02/20 01:30:50;;;;;;;2.38;0.47;;;4.60;99.90;;;;;;5017021;28;20121;-69
2022/02/20 01:33:17;;;;;;;1.00;0.30;;;4.60;99.90;;;;;;5017358;28;20041;-69
2022/02/20 01:35:43;;;;;;;1.63;0.28;;;4.60;99.90;;;;;;5015744;28;20109;-69
2022/02/20 01:38:09;;;;;;;0.93;0.45;;;4.60;99.90;;;;;;5018531;28;20730;-69
2022/02/20 01:40:34;;;;;;;2.67;0.40;;;4.60;99.90;;;;;;5017269;28;20049;-69
2022/02/20 01:43:01;;;;;;;0.60;0.40;;;4.60;99.90;;;;;;5019069;28;20033;-69
2022/02/20 01:45:26;;;;;;;;;;;4.60;99.90;;;;;;5015391;28;20034;-69
2022/02/20 01:47:52;;;;;;;0.77;0.40;;;4.60;99.90;;;;;;5017697;28;19913;-69
2022/02/20 01:50:18;;;;;;;2.80;0.70;;;4.70;99.90;;;;;;5017840;28;20046;-70
2022/02/20 01:52:44;;;;;;;1.40;0.40;;;4.70;99.90;;;;;;5018265;28;20037;-69
2022/02/20 01:55:10;;;;;;;1.77;0.52;;;4.70;99.90;;;;;;5018233;28;20053;-69
2022/02/20 01:57:41;;;;;;;0.82;0.43;;;4.70;99.90;;;;;;5018126;28;20114;-69
2022/02/20 02:00:09;;;;;;;2.80;0.30;;;4.70;99.90;;;;;;5016667;28;20109;-69
2022/02/20 02:02:36;;;;;;;1.42;1.00;;;4.70;99.90;;;;;;5015325;28;20030;-69
2022/02/20 02:05:03;;;;;;;0.95;0.45;;;4.70;99.90;;;;;;5018371;28;20037;-69
2022/02/20 02:07:29;;;;;;;1.50;0.65;;;4.70;99.90;;;;;;5018069;28;20064;-69
2022/02/20 02:09:55;;;;;;;0.40;0.22;;;4.70;99.90;;;;;;5017676;28;20058;-69
2022/02/20 02:12:20;;;;;;;1.05;0.40;;;4.70;99.90;;;;;;5017641;28;20065;-69
2022/02/20 02:14:52;;;;;;;1.95;0.65;;;4.80;99.90;;;;;;5018763;28;20040;-69
2022/02/20 02:17:17;;;;;;;1.38;0.40;;;4.70;99.90;;;;;;5017388;28;20036;-69
2022/02/20 02:19:43;;;;;;;1.38;0.35;;;4.70;99.90;;;;;;5017433;28;20033;-69
2022/02/20 02:22:08;;;;;;;0.90;0.20;;;4.70;99.90;;;;;;5017646;28;20099;-69
2022/02/20 02:24:34;;;;;;;0.50;0.28;;;4.70;99.90;;;;;;5017526;28;20038;-68
2022/02/20 02:27:01;;;;;;;0.28;0.28;;;4.70;99.90;;;;;;5016513;28;20084;-69
2022/02/20 02:29:27;;;;;;;1.45;0.30;;;4.80;99.90;;;;;;5017990;28;20116;-69
2022/02/20 02:31:52;;;;;;;0.90;0.50;;;4.80;99.90;;;;;;5015862;28;20129;-69
2022/02/20 02:34:20;;;;;;;0.40;0.30;;;4.80;99.90;;;;;;5015244;28;20375;-69
2022/02/20 02:36:49;;;;;;;0.38;0.20;;;4.80;99.90;;;;;;5015675;28;20026;-69
2022/02/20 02:39:18;;;;;;;0.50;0.30;;;4.80;99.90;;;;;;5016409;28;20030;-69
2022/02/20 02:41:44;;;;;;;1.10;0.50;;;4.80;99.90;;;;;;5015600;28;20091;-69
2022/02/20 02:44:09;;;;;;;;;;;4.80;99.90;;;;;;5018076;28;20033;-69
2022/02/20 02:46:35;;;;;;;1.88;0.50;;;4.80;99.90;;;;;;5017133;28;20370;-69
2022/02/20 02:49:01;;;;;;;0.55;0.30;;;4.80;99.90;;;;;;5014800;28;20060;-69
2022/02/20 02:51:27;;;;;;;0.85;0.38;;;4.90;99.90;;;;;;5017006;28;20121;-69
2022/02/20 02:53:54;;;;;;;2.72;0.47;;;4.90;99.90;;;;;;5017443;28;20442;-68
2022/02/20 02:56:20;;;;;;;0.60;0.30;;;4.90;99.90;;;;;;5013887;28;20030;-69
2022/02/20 02:58:46;;;;;;;0.70;0.50;;;4.90;99.90;;;;;;5016146;28;20117;-69
2022/02/20 03:01:12;;;;;;;1.50;0.50;;;4.90;99.90;;;;;;5018098;28;20029;-68
2022/02/20 03:03:38;;;;;;;3.50;0.47;;;5.00;99.90;;;;;;5018052;28;20446;-68
2022/02/20 03:06:11;;;;;;;1.58;0.40;;;4.90;99.90;;;;;;5014546;28;20065;-68
2022/02/20 03:08:37;;;;;;;0.90;0.60;;;5.00;99.90;;;;;;5014148;28;20044;-69
2022/02/20 03:11:04;;;;;;;2.47;0.50;;;5.00;99.90;;;;;;5017842;28;20030;-68
2022/02/20 03:13:31;;;;;;;1.35;0.70;;;5.00;99.90;;;;;;5017530;28;20045;-68
2022/02/20 03:15:57;;;;;;;0.93;0.40;;;5.10;99.90;;;;;;5016944;28;20512;-69
2022/02/20 03:18:22;;;;;;;;;;;5.10;99.90;;;;;;5018242;28;20033;-69
2022/02/20 03:20:48;;;;;;;1.90;0.70;;;5.10;99.90;;;;;;5017099;28;19917;-69
2022/02/20 03:23:13;;;;;;;1.73;0.63;;;5.10;99.90;;;;;;5015586;28;20036;-68
2022/02/20 03:25:39;;;;;;;1.30;0.73;;;5.10;99.90;;;;;;5014458;28;20100;-69
2022/02/20 03:28:05;;;;;;;;;;;5.20;99.90;;;;;;5016125;28;20462;-69
2022/02/20 03:30:30;;;;;;;2.70;0.70;;;5.20;99.90;;;;;;5015427;28;20004;-69
2022/02/20 03:32:56;;;;;;;1.00;0.75;;;5.20;99.90;;;;;;5017237;28;20041;-69
2022/02/20 03:35:22;;;;;;;1.70;0.98;;;5.30;99.90;;;;;;5016034;28;20056;-69
2022/02/20 03:37:47;;;;;;;;;;;5.30;99.90;;;;;;5016973;28;20391;-69
2022/02/20 03:40:14;;;;;;;1.77;1.00;;;5.30;99.90;;;;;;5014150;28;20003;-69
2022/02/20 03:42:39;;;;;;;;;;;5.30;99.90;;;;;;5015125;28;20041;-69
2022/02/20 03:45:06;;;;;;;2.70;0.88;;;5.30;99.90;;;;;;5015193;28;19913;-69
2022/02/20 03:47:32;;;;;;;0.80;0.70;;;5.30;99.90;;;;;;5015421;28;20041;-69
2022/02/20 03:49:58;;;;;;;3.05;1.13;;;5.40;99.90;;;;;;5016291;28;20054;-69
2022/02/20 03:52:23;;;;;;;2.33;1.05;;;5.40;99.90;;;;;;5016197;28;20061;-68
2022/02/20 03:54:49;;;;;;;0.95;0.55;;;5.40;99.90;;;;;;5017171;28;20030;-68
2022/02/20 03:57:14;;;;;;;0.93;0.50;;;5.40;99.90;;;;;;5016872;28;20101;-68
2022/02/20 03:59:40;;;;;;;0.60;0.40;;;5.30;99.90;;;;;;5016120;28;20483;-69
2022/02/20 04:02:06;;;;;;;1.02;0.50;;;5.40;99.90;;;;;;5018860;28;20113;-69
2022/02/20 04:04:31;;;;;;;0.80;0.70;;;5.40;99.90;;;;;;5019858;28;20414;-69
2022/02/20 04:06:57;;;;;;;2.20;0.60;;;5.30;99.90;;;;;;5021475;28;20065;-69
2022/02/20 04:09:22;;;;;;;0.73;0.55;;;5.40;99.90;;;;;;5019578;28;20044;-69
2022/02/20 04:11:48;;;;;;;1.20;0.90;;;5.30;99.90;;;;;;5020075;28;20030;-70
2022/02/20 04:14:13;;;;;;;0.88;0.80;;;5.30;99.90;;;;;;5018983;28;20072;-69
2022/02/20 04:16:39;;;;;;;1.00;0.82;;;5.30;99.90;;;;;;5018659;28;20034;-70
2022/02/20 04:19:04;;;;;;;3.60;1.17;;;5.30;99.90;;;;;;5020004;28;20196;-69
2022/02/20 04:21:30;;;;;;;0.95;0.63;;;5.30;99.90;;;;;;5019382;28;20033;-70
2022/02/20 04:23:55;;;;;;;0.85;0.60;;;5.30;99.90;;;;;;5019630;28;20561;-70
2022/02/20 04:26:21;;;;;;;1.48;0.70;;;5.20;99.90;;;;;;5021298;28;20026;-69
2022/02/20 04:28:47;;;;;;;;;;;5.30;99.90;;;;;;5019352;28;20026;-70
2022/02/20 04:31:13;;;;;;;1.15;0.60;;;5.30;99.90;;;;;;5017561;28;19932;-70
2022/02/20 04:33:38;;;;;;;0.80;0.57;;;5.30;99.90;;;;;;5017226;28;20278;-70
2022/02/20 04:36:04;;;;;;;1.67;0.82;;;5.30;99.90;;;;;;5019121;28;20026;-70
2022/02/20 04:38:30;;;;;;;1.02;0.80;;;5.30;99.90;;;;;;5019237;28;20029;-70
2022/02/20 04:40:55;;;;;;;1.48;1.10;;;5.30;99.90;;;;;;5018621;28;20025;-70
2022/02/20 04:43:21;;;;;;;1.33;0.73;;;5.30;99.90;;;;;;5018969;28;20028;-70
2022/02/20 04:45:46;;;;;;;2.38;1.73;;;5.30;99.90;;;;;;5018018;28;20367;-70
2022/02/20 04:48:12;;;;;;;3.40;1.58;;;5.30;99.90;;;;;;5017912;28;20026;-70
2022/02/20 04:50:38;;;;;;;3.10;1.35;;;5.30;99.90;;;;;;5017212;28;20486;-70
2022/02/20 04:53:03;;;;;;;1.55;0.90;;;5.30;99.90;;;;;;5019434;28;20085;-70
2022/02/20 04:55:29;;;;;;;2.25;1.63;;;5.40;99.90;;;;;;5018877;28;20026;-70
2022/02/20 04:57:55;;;;;;;1.40;0.82;;;5.40;99.90;;;;;;5019848;28;20026;-70
2022/02/20 05:00:20;;;;;;;1.05;0.95;;;5.40;99.90;;;;;;5018413;28;20455;-70
2022/02/20 05:02:46;;;;;;;1.83;1.42;;;5.30;99.90;;;;;;5001546;28;20387;-70
2022/02/20 05:05:11;;;;;;;2.45;1.95;;;5.40;99.90;;;;;;5018263;28;20095;-70
2022/02/20 05:07:38;;;;;;;2.38;1.77;;;5.30;99.90;;;;;;5016770;28;20103;-70
2022/02/20 05:10:03;;;;;;;4.63;2.53;;;5.30;99.90;;;;;;5017407;28;20044;-70
2022/02/20 05:12:29;;;;;;;3.35;1.98;;;5.30;99.90;;;;;;5017060;28;20026;-70
2022/02/20 05:14:55;;;;;;;3.85;2.40;;;5.30;99.90;;;;;;5020362;28;20068;-70
2022/02/20 05:17:20;;;;;;;3.58;2.45;;;5.30;99.90;;;;;;5018469;28;20080;-70
2022/02/20 05:19:46;;;;;;;3.63;2.88;;;5.30;99.90;;;;;;5020270;28;20598;-70
2022/02/20 05:22:11;;;;;;;3.08;2.78;;;5.30;99.90;;;;;;5014253;28;20045;-69
2022/02/20 05:24:37;;;;;;;3.38;3.08;;;5.20;99.90;;;;;;5011970;28;20034;-70
2022/02/20 05:27:03;;;;;;;3.20;2.90;;;5.20;99.90;;;;;;5015702;28;20044;-69
2022/02/20 05:29:28;;;;;;;7.63;3.95;;;5.20;99.90;;;;;;5015874;28;20121;-69
2022/02/20 05:31:54;;;;;;;4.47;3.30;;;5.30;99.90;;;;;;5015710;28;20025;-69
2022/02/20 05:34:19;;;;;;;3.58;3.20;;;5.30;99.90;;;;;;5018405;28;20045;-70
2022/02/20 05:36:45;;;;;;;4.60;3.78;;;5.30;99.90;;;;;;5019277;28;20021;-69
2022/02/20 05:39:10;;;;;;;6.13;3.78;;;5.30;99.90;;;;;;5017644;28;20025;-69
2022/02/20 05:41:36;;;;;;;5.10;3.72;;;5.30;99.90;;;;;;5016624;28;20022;-69
2022/02/20 05:44:01;;;;;;;6.30;3.72;;;5.30;99.90;;;;;;5018786;28;20029;-69
2022/02/20 05:46:27;;;;;;;4.13;3.22;;;5.30;99.90;;;;;;5017571;28;20030;-70
2022/02/20 05:48:52;;;;;;;5.78;4.35;;;5.30;99.90;;;;;;5017446;28;20030;-70
2022/02/20 05:51:18;;;;;;;5.00;4.20;;;5.30;99.90;;;;;;5017609;28;20112;-69
2022/02/20 05:53:43;;;;;;;5.65;3.47;;;5.30;99.90;;;;;;5019529;28;20102;-70
2022/02/20 05:56:09;;;;;;;;;;;5.30;99.90;;;;;;5018432;28;20478;-70
2022/02/20 05:58:34;;;;;;;4.63;3.63;;;5.30;99.90;;;;;;5015664;28;19995;-69
2022/02/20 06:01:00;;;;;;;3.90;3.50;;;5.20;99.90;;;;;;5018328;28;20108;-69
2022/02/20 06:03:26;;;;;;;5.72;3.75;;;5.20;99.90;;;;;;5019076;28;20141;-69
2022/02/20 06:05:51;;;;;;;5.13;4.45;;;5.20;99.90;;;;;;5017622;28;20124;-69
2022/02/20 06:08:18;;;;;;;5.53;4.45;;;5.20;99.90;;;;;;5018558;28;20034;-69
2022/02/20 06:10:43;;;;;;;4.85;4.15;;;5.20;99.90;;;;;;5017148;28;20486;-69
2022/02/20 06:13:09;;;;;;;5.20;3.70;;;5.20;99.90;;;;;;5015365;28;20036;-69
2022/02/20 06:15:36;;;;;;;4.60;4.10;;;5.20;99.90;;;;;;5016534;28;20129;-69
2022/02/20 06:18:02;;;;;;;5.43;4.05;;;5.20;99.90;;;;;;5019534;28;20026;-69
2022/02/20 06:20:27;;;;;;;;;;;5.20;99.90;;;;;;5016861;28;20099;-69
2022/02/20 06:22:53;;;;;;;5.68;3.58;;;5.20;99.90;;;;;;5018668;28;19916;-69
2022/02/20 06:25:19;;;;;;;7.03;4.82;;;5.20;99.90;;;;;;5016777;28;20044;-69
2022/02/20 06:27:44;;;;;;;;;;;5.10;99.90;;;;;;5016835;28;20116;-69
2022/02/20 06:30:11;;;;;;;5.22;3.92;;;5.10;99.90;;;;;;5016423;28;20385;-69
2022/02/20 06:32:36;;;;;;;;;;;5.10;99.90;;;;;;5019129;28;20083;-69
2022/02/20 06:35:02;;;;;;;5.93;4.25;;;5.10;99.90;;;;;;5018045;28;19916;-69
2022/02/20 06:37:27;;;;;;;;;;;5.00;99.90;;;;;;5018059;28;20032;-69
2022/02/20 06:39:53;;;;;;;7.78;5.28;;;5.00;99.90;;;;;;5017764;28;19966;-69
2022/02/20 06:42:18;;;;;;;8.38;5.65;;;5.00;99.90;;;;;;5016493;28;20040;-70
2022/02/20 06:44:44;;;;;;;5.85;4.70;;;5.00;99.90;;;;;;5014700;28;20034;-70
2022/02/20 06:47:11;;;;;;;4.82;4.07;;;5.00;99.90;;;;;;5017529;28;20637;-69
2022/02/20 06:49:36;;;;;;;6.68;4.68;;;5.00;99.90;;;;;;5017014;28;20073;-69
2022/02/20 06:52:02;;;;;;;4.97;4.30;;;5.00;99.90;;;;;;5016946;28;20061;-69
2022/02/20 06:54:28;;;;;;;;;;;5.00;99.90;;;;;;5017176;28;20026;-69
2022/02/20 06:56:57;;;;;;;7.07;5.22;;;5.00;99.90;;;;;;5018361;28;20095;-69
2022/02/20 06:59:25;;;;;;;8.65;5.10;;;5.10;99.90;;;;;;5015450;28;20030;-69
2022/02/20 07:01:51;;;;;;;7.65;5.20;;;5.10;99.90;;;;;;5015050;28;20115;-69
2022/02/20 07:04:17;;;;;;;8.13;5.30;;;5.10;99.90;;;;;;5016681;28;20101;-70
2022/02/20 07:06:43;;;;;;;9.15;5.75;;;5.10;99.90;;;;;;5017209;28;20136;-70
2022/02/20 07:09:10;;;;;;;;;;;5.10;99.90;;;;;;5017519;28;20026;-69
2022/02/20 07:11:36;;;;;;;14.23;8.57;;;5.10;99.90;;;;;;5017580;28;19909;-69
2022/02/20 07:14:03;;;;;;;8.95;6.30;;;5.10;99.90;;;;;;5016439;28;20087;-69
2022/02/20 07:16:29;;;;;;;12.10;7.20;;;5.20;99.90;;;;;;5015494;28;20483;-69
2022/02/20 07:18:55;;;;;;;6.80;4.47;;;5.20;99.90;;;;;;5016068;28;20030;-69
2022/02/20 07:21:24;;;;;;;9.00;5.55;;;5.20;99.90;;;;;;5017827;28;20105;-69
2022/02/20 07:23:53;;;;;;;10.15;5.80;;;5.20;99.90;;;;;;5017652;28;20041;-69
2022/02/20 07:26:18;;;;;;;6.45;4.43;;;5.20;99.90;;;;;;5017737;28;20033;-69
2022/02/20 07:28:44;;;;;;;4.63;2.72;;;5.30;99.90;;;;;;5016233;28;20026;-69
2022/02/20 07:31:10;;;;;;;;;;;5.40;99.90;;;;;;5017197;28;20164;-69
2022/02/20 07:33:36;;;;;;;6.35;3.88;;;5.40;99.90;;;;;;5015237;28;20039;-69
2022/02/20 07:36:01;;;;;;;7.78;2.00;;;5.40;99.90;;;;;;5020384;28;20566;-69
2022/02/20 07:38:27;;;;;;;3.88;2.40;;;5.50;99.90;;;;;;5020229;28;20033;-70
2022/02/20 07:40:53;;;;;;;3.72;1.60;;;5.50;99.90;;;;;;5017731;28;20030;-70
2022/02/20 07:43:19;;;;;;;6.00;2.00;;;5.50;99.90;;;;;;5017974;28;20037;-69
2022/02/20 07:45:44;;;;;;;5.68;1.98;;;5.60;99.90;;;;;;5017905;28;20029;-69
2022/02/20 07:48:10;;;;;;;4.50;3.90;;;5.60;99.90;;;;;;5018204;28;20493;-69
2022/02/20 07:50:37;;;;;;;5.28;2.42;;;5.60;99.90;;;;;;5018937;28;20025;-68
2022/02/20 07:53:04;;;;;;;2.80;2.05;;;5.60;99.90;;;;;;5017661;28;20053;-70
2022/02/20 07:55:31;;;;;;;7.22;2.75;;;5.60;99.90;;;;;;5020568;28;20518;-69
2022/02/20 07:58:00;;;;;;;3.15;2.22;;;5.50;99.90;;;;;;5017917;28;20029;-69
2022/02/20 08:00:28;;;;;;;5.80;3.85;;;5.60;99.90;;;;;;5017744;28;20470;-69
2022/02/20 08:02:54;;;;;;;4.53;2.05;;;5.60;99.90;;;;;;5021269;28;20113;-69
2022/02/20 08:05:19;;;;;;;4.45;1.75;;;5.60;99.90;;;;;;5018284;28;20084;-69
2022/02/20 08:07:45;;;;;;;3.75;1.65;;;5.70;99.90;;;;;;5020821;28;20041;-69
2022/02/20 08:10:12;;;;;;;4.22;2.33;;;5.70;99.90;;;;;;5015728;28;20033;-69
2022/02/20 08:12:37;;;;;;;7.18;2.10;;;5.70;99.90;;;;;;5016214;28;20037;-70
2022/02/20 08:15:04;;;;;;;4.10;1.63;;;5.70;99.90;;;;;;5017679;28;20707;-69
2022/02/20 08:17:30;;;;;;;4.65;1.95;;;5.70;99.90;;;;;;5018744;28;20046;-69
2022/02/20 08:19:55;;;;;;;3.80;1.50;;;5.70;99.90;;;;;;5018720;28;20033;-69
2022/02/20 08:22:21;;;;;;;2.47;1.40;;;5.70;99.90;;;;;;5017658;28;20033;-69
2022/02/20 08:24:46;;;;;;;8.10;5.10;;;5.70;99.90;;;;;;5019230;28;20118;-69
2022/02/20 08:27:14;;;;;;;7.20;4.03;;;5.70;99.90;;;;;;5019736;28;20037;-69
2022/02/20 08:29:40;;;;;;;4.15;2.63;;;5.80;99.90;;;;;;5018949;28;20122;-69
2022/02/20 08:32:06;;;;;;;6.85;3.85;;;5.80;99.90;;;;;;5020141;28;20030;-69
2022/02/20 08:34:33;;;;;;;6.18;3.20;;;5.80;99.90;;;;;;5018987;28;20576;-69
2022/02/20 08:37:00;;;;;;;5.05;3.15;;;5.80;99.90;;;;;;5019257;28;20406;-69
2022/02/20 08:39:26;;;;;;;3.88;2.67;;;5.90;99.90;;;;;;5012126;28;20479;-68
2022/02/20 08:41:51;;;;;;;6.78;3.03;;;5.90;99.90;;;;;;5014322;28;20033;-69
2022/02/20 08:44:16;;;;;;;4.80;3.05;;;5.90;99.90;;;;;;5016752;28;20168;-68
2022/02/20 08:46:42;;;;;;;8.38;2.67;;;6.00;99.90;;;;;;5019427;28;20495;-68
2022/02/20 08:49:07;;;;;;;5.25;3.50;;;6.00;99.90;;;;;;5018497;28;20120;-67
2022/02/20 08:51:33;;;;;;;;;;;6.00;99.90;;;;;;5018036;28;20781;-68
2022/02/20 08:53:58;;;;;;;6.03;2.58;;;6.10;99.90;;;;;;5019227;28;20037;-68
2022/02/20 08:56:26;;;;;;;5.03;3.10;;;6.10;99.90;;;;;;5019449;28;20220;-68
2022/02/20 08:58:53;;;;;;;4.30;3.42;;;6.10;99.90;;;;;;5018340;28;20029;-68
2022/02/20 09:01:18;;;;;;;5.88;2.90;;;6.10;99.90;;;;;;5020219;28;20037;-68
2022/02/20 09:03:44;;;;;;;5.45;3.30;;;6.10;99.90;;;;;;5016935;28;20033;-68
2022/02/20 09:06:09;;;;;;;8.77;4.00;;;6.10;99.90;;;;;;5018459;28;20034;-68
2022/02/20 09:08:35;;;;;;;7.20;3.00;;;6.10;99.90;;;;;;5019465;28;20527;-69
2022/02/20 09:11:01;;;;;;;4.00;2.58;;;6.10;99.90;;;;;;5019873;28;20030;-68
2022/02/20 09:13:26;;;;;;;7.22;2.45;;;6.10;99.90;;;;;;5015740;28;20033;-69
2022/02/20 09:15:54;;;;;;;4.82;2.50;;;6.10;99.90;;;;;;5016818;28;20052;-68
2022/02/20 09:18:19;;;;;;;6.10;2.70;;;6.00;99.90;;;;;;5017664;28;20085;-68
2022/02/20 09:20:45;;;;;;;7.38;2.63;;;6.00;99.90;;;;;;5016118;28;20501;-69
2022/02/20 09:23:10;;;;;;;4.25;3.05;;;6.00;99.90;;;;;;5019245;28;20051;-68
2022/02/20 09:25:36;;;;;;;3.92;2.65;;;6.00;99.90;;;;;;5016493;28;20094;-69
2022/02/20 09:28:02;;;;;;;3.55;3.20;;;6.00;99.90;;;;;;5019306;28;20034;-68
2022/02/20 09:30:28;;;;;;;5.03;3.58;;;6.00;99.90;;;;;;5014845;28;20485;-68
2022/02/20 09:32:53;;;;;;;4.25;2.50;;;6.00;99.90;;;;;;5018278;28;20029;-68
2022/02/20 09:35:19;;;;;;;6.65;3.35;;;6.00;99.90;;;;;;5015178;28;20029;-68
2022/02/20 09:37:44;;;;;;;9.13;4.10;;;6.10;99.90;;;;;;5019694;28;20040;-68
2022/02/20 09:40:10;;;;;;;8.57;4.47;;;6.10;99.90;;;;;;5015292;28;20109;-68
2022/02/20 09:42:36;;;;;;;10.73;5.35;;;6.10;99.90;;;;;;5016172;28;20061;-69
2022/02/20 09:45:02;;;;;;;;;;;6.10;99.90;;;;;;5016177;28;20111;-68
2022/02/20 09:47:30;;;;;;;9.07;4.05;;;6.20;99.90;;;;;;5014935;28;19956;-68
2022/02/20 09:49:58;;;;;;;9.55;4.38;;;6.20;99.90;;;;;;4998710;28;20394;-69
2022/02/20 09:52:24;;;;;;;5.18;3.90;;;6.10;99.90;;;;;;5017714;28;20113;-69
2022/02/20 09:54:53;;;;;;;4.22;2.78;;;6.20;99.90;;;;;;5017571;28;20601;-68
2022/02/20 09:57:18;;;;;;;5.93;1.60;;;6.10;99.90;;;;;;5017416;28;20022;-68
2022/02/20 09:59:44;;;;;;;3.25;1.65;;;6.20;99.90;;;;;;5017304;28;20030;-68
2022/02/20 10:02:13;;;;;;;3.85;1.92;;;6.10;99.90;;;;;;5016797;28;20029;-68
2022/02/20 10:04:44;;;;;;;5.13;1.65;;;6.20;99.90;;;;;;5012588;28;20057;-68
2022/02/20 10:07:26;;;;;;;10.70;2.50;;;6.20;99.90;;;;;;5016439;28;20718;-69
2022/02/20 10:09:52;;;;;;;6.28;1.55;;;6.20;99.90;;;;;;5017013;28;20029;-68
2022/02/20 10:12:19;;;;;;;4.07;1.75;;;6.20;99.90;;;;;;5016726;28;20426;-68
2022/02/20 10:14:44;;;;;;;4.97;2.05;;;6.20;99.90;;;;;;5017876;28;20034;-70
2022/02/20 10:17:14;;;;;;;11.05;2.15;;;6.30;99.90;;;;;;5017989;28;20025;-69
2022/02/20 10:20:01;;;;;;;6.25;2.25;;;6.30;99.90;;;;;;5014631;28;20057;-69
2022/02/20 10:22:29;;;;;;;4.47;2.25;;;6.30;99.90;;;;;;5013633;28;20030;-69
2022/02/20 10:25:07;;;;;;;6.60;2.92;;;6.40;99.90;;;;;;5016958;28;20083;-76
2022/02/20 10:27:33;;;;;;;6.88;2.13;;;6.60;99.90;;;;;;5015856;28;20036;-70
2022/02/20 10:30:13;;;;;;;5.85;2.72;;;7.10;99.90;;;;;;5017050;28;20030;-71
2022/02/20 10:32:39;;;;;;;4.38;2.40;;;7.30;99.90;;;;;;5014700;28;20096;-70
2022/02/20 10:35:09;;;;;;;7.20;2.40;;;7.20;99.90;;;;;;5016733;28;20029;-71
2022/02/20 10:37:34;;;;;;;11.48;3.65;;;7.10;99.90;;;;;;5016509;28;20332;-71
2022/02/20 10:40:00;;;;;;;3.80;2.50;;;7.00;99.90;;;;;;5014893;28;20021;-70
2022/02/20 10:42:27;;;;;;;9.35;1.77;;;7.00;99.90;;;;;;5017426;28;20084;-70
2022/02/20 10:44:58;;;;;;;4.25;1.60;;;6.90;99.90;;;;;;5016919;28;20455;-70
2022/02/20 10:47:25;;;;;;;6.32;1.88;;;6.90;99.90;;;;;;5017060;28;20555;-70
2022/02/20 10:49:51;;;;;;;6.10;2.00;;;7.00;99.90;;;;;;5013685;28;20029;-70
2022/02/20 10:52:22;;;;;;;2.08;0.90;;;7.00;99.90;;;;;;5016892;28;20029;-71
2022/02/20 10:55:02;;;;;;;1.85;1.23;;;7.10;99.90;;;;;;5016437;28;20501;-71
2022/02/20 10:57:38;;;;;;;2.78;1.08;;;7.10;99.90;;;;;;5016993;28;20509;-71
2022/02/20 11:00:15;;;;;;;2.85;1.00;;;7.10;99.90;;;;;;5016790;28;20025;-71
2022/02/20 11:02:42;;;;;;;6.93;1.45;;;7.20;99.90;;;;;;5013577;28;20042;-71
2022/02/20 11:05:08;;;;;;;3.90;1.70;;;7.20;99.90;;;;;;5016249;28;20061;-71
2022/02/20 11:07:37;;;;;;;4.53;1.45;;;7.10;99.90;;;;;;5014066;28;20041;-70
2022/02/20 11:10:09;;;;;;;4.40;1.02;;;7.20;99.90;;;;;;5018465;28;20103;-70
2022/02/20 11:12:36;;;;;;;2.92;1.15;;;7.20;99.90;;;;;;5019680;28;20029;-71
2022/02/20 11:15:07;;;;;;;6.72;1.70;;;7.20;99.90;;;;;;5039019;22;20048;-68
2022/02/20 11:17:34;;;;;;;2.50;1.20;;;7.20;99.90;;;;;;5037327;28;20413;-67
2022/02/20 11:20:01;;;;;;;1.52;0.70;;;7.30;99.90;;;;;;5039629;28;20025;-69
2022/02/20 11:22:33;;;;;;;3.28;1.00;;;7.30;99.90;;;;;;5039797;28;20130;-69
2022/02/20 11:24:59;;;;;;;2.80;1.02;;;7.30;99.90;;;;;;5032667;28;20026;-68
2022/02/20 11:27:26;;;;;;;3.95;0.95;;;7.30;99.90;;;;;;5020114;28;20058;-69
2022/02/20 11:29:52;;;;;;;3.70;0.82;;;7.30;99.90;;;;;;5022525;28;20049;-68
2022/02/20 11:32:20;;;;;;;1.25;0.82;;;7.40;99.90;;;;;;5021011;28;20044;-68
2022/02/20 11:34:47;;;;;;;3.05;1.02;;;7.40;99.90;;;;;;5021894;28;20431;-67
2022/02/20 11:37:14;;;;;;;1.95;0.90;;;7.40;99.90;;;;;;5022107;28;20475;-68
2022/02/20 11:40:04;;;;;;;3.92;0.95;;;7.40;99.90;;;;;;5021632;28;20112;-68
2022/02/20 11:42:30;;;;;;;2.65;0.75;;;7.50;99.90;;;;;;5021669;28;20127;-68
2022/02/20 11:45:05;;;;;;;1.90;0.60;;;7.50;99.90;;;;;;5021190;28;20104;-67
2022/02/20 11:47:41;;;;;;;2.80;0.65;;;7.60;99.90;;;;;;5021912;28;20161;-68
2022/02/20 11:50:16;;;;;;;4.45;1.48;;;7.60;99.90;;;;;;5022250;28;20386;-68
2022/02/20 11:52:49;;;;;;;1.13;0.50;;;7.70;99.90;;;;;;5021415;28;20061;-68
2022/02/20 11:55:20;;;;;;;3.83;1.50;;;7.70;99.90;;;;;;5021319;28;20037;-67
2022/02/20 11:57:46;;;;;;;2.40;0.60;;;7.70;99.90;;;;;;5020928;28;20022;-67
2022/02/20 12:00:18;;;;;;;3.17;0.73;;;7.70;99.90;;;;;;5021992;28;20044;-68
2022/02/20 12:03:01;;;;;;;2.58;0.50;;;7.70;99.90;;;;;;5016885;28;20069;-67
2022/02/20 12:05:26;;;;;;;1.13;0.52;;;7.70;99.90;;;;;;5017615;28;20033;-69
2022/02/20 12:07:52;;;;;;;2.38;0.35;;;7.70;99.90;;;;;;5020111;28;20363;-67
2022/02/20 12:10:21;;;;;;;2.63;1.42;;;7.80;99.90;;;;;;5019964;28;20045;-67
2022/02/20 12:12:51;;;;;;;3.10;0.50;;;7.80;99.90;;;;;;5020341;28;20108;-67
2022/02/20 12:15:39;;;;;;;3.53;0.50;;;7.90;99.90;;;;;;5020001;28;20056;-66
2022/02/20 12:18:10;;;;;;;1.83;0.60;;;7.90;99.90;;;;;;5019953;28;20112;-67
2022/02/20 12:20:51;;;;;;;2.05;0.40;;;7.90;99.90;;;;;;5021195;28;20366;-67
2022/02/20 12:23:29;;;;;;;2.67;0.98;;;7.90;99.90;;;;;;5020156;28;20017;-67
2022/02/20 12:25:59;;;;;;;0.95;0.40;;;8.00;99.90;;;;;;5020057;28;20040;-67
2022/02/20 12:28:35;;;;;;;1.60;0.50;;;8.00;99.90;;;;;;5019230;28;20087;-68
2022/02/20 12:31:13;;;;;;;2.50;0.80;;;8.10;99.90;;;;;;5019163;28;20040;-66
2022/02/20 12:33:49;;;;;;;1.65;0.43;;;8.10;99.90;;;;;;5019302;28;20546;-66
2022/02/20 12:36:27;;;;;;;0.70;0.40;;;8.10;99.90;;;;;;5019449;28;20026;-67
2022/02/20 12:38:54;;;;;;;1.67;0.30;;;8.20;99.90;;;;;;5019469;28;20063;-67
2022/02/20 12:41:20;;;;;;;1.40;0.50;;;8.20;99.90;;;;;;5019547;28;20042;-67
2022/02/20 12:43:51;;;;;;;2.20;0.30;;;8.20;99.90;;;;;;5019514;28;20458;-67
2022/02/20 12:46:17;;;;;;;2.50;0.60;;;8.30;99.90;;;;;;5020152;28;20037;-67
2022/02/20 12:48:42;;;;;;;1.90;0.50;;;8.30;99.90;;;;;;5017950;28;20735;-67
2022/02/20 12:51:09;;;;;;;;;;;8.30;99.90;;;;;;5019827;28;20115;-67
2022/02/20 12:53:35;;;;;;;1.50;0.63;;;8.40;99.90;;;;;;5018950;28;20288;-68
2022/02/20 12:56:03;;;;;;;1.55;0.32;;;8.40;99.90;;;;;;5020953;28;20026;-68
2022/02/20 12:58:29;;;;;;;1.02;0.40;;;8.40;99.90;;;;;;5018749;28;20034;-67
2022/02/20 13:00:56;;;;;;;0.30;0.30;;;8.40;99.90;;;;;;5018402;28;20492;-67